sensor_id;sensor_type;location;lat;lon;timestamp;P1;durP1;ratioP1;P2;durP2;ratioP2
8642;SDS011;4359;49.358;11.256;2023-04-06T00:01:27;13.33;;;6.33;;
8642;SDS011;4359;49.358;11.256;2023-04-06T00:06:18;13.20;;;5.97;;
8642;SDS011;4359;49.358;11.256;2023-04-06T00:11:09;12.40;;;6.43;;
8642;SDS011;4359;49.358;11.256;2023-04-06T00:16:01;14.03;;;6.13;;
8642;SDS011;4359;49.358;11.256;2023-04-06T00:18:27;12.60;;;6.90;;
8642;SDS011;4359;49.358;11.256;2023-04-06T00:23:18;10.70;;;6.23;;
8642;SDS011;4359;49.358;11.256;2023-04-06T00:28:09;12.77;;;6.60;;
8642;SDS011;4359;49.358;11.256;2023-04-06T00:30:35;13.33;;;7.17;;
8642;SDS011;4359;49.358;11.256;2023-04-06T00:35:26;13.77;;;6.53;;
8642;SDS011;4359;49.358;11.256;2023-04-06T00:37:52;11.87;;;6.57;;
8642;SDS011;4359;49.358;11.256;2023-04-06T00:42:43;13.97;;;6.80;;
8642;SDS011;4359;49.358;11.256;2023-04-06T00:47:35;10.90;;;6.33;;
8642;SDS011;4359;49.358;11.256;2023-04-06T00:52:26;11.43;;;6.07;;
8642;SDS011;4359;49.358;11.256;2023-04-06T00:57:18;13.93;;;6.57;;
8642;SDS011;4359;49.358;11.256;2023-04-06T00:59:44;11.73;;;6.77;;
8642;SDS011;4359;49.358;11.256;2023-04-06T01:02:10;14.87;;;6.50;;
8642;SDS011;4359;49.358;11.256;2023-04-06T01:07:02;12.63;;;7.10;;
8642;SDS011;4359;49.358;11.256;2023-04-06T01:11:57;28.00;;;15.40;;
8642;SDS011;4359;49.358;11.256;2023-04-06T01:14:23;19.63;;;10.77;;
8642;SDS011;4359;49.358;11.256;2023-04-06T01:16:49;20.93;;;10.63;;
8642;SDS011;4359;49.358;11.256;2023-04-06T01:21:41;14.63;;;7.67;;
8642;SDS011;4359;49.358;11.256;2023-04-06T01:26:33;15.60;;;8.00;;
8642;SDS011;4359;49.358;11.256;2023-04-06T01:29:00;15.13;;;8.77;;
8642;SDS011;4359;49.358;11.256;2023-04-06T01:31:26;15.07;;;7.47;;
8642;SDS011;4359;49.358;11.256;2023-04-06T01:33:53;31.93;;;18.30;;
8642;SDS011;4359;49.358;11.256;2023-04-06T01:36:19;55.50;;;26.90;;
8642;SDS011;4359;49.358;11.256;2023-04-06T01:38:45;28.13;;;14.37;;
8642;SDS011;4359;49.358;11.256;2023-04-06T01:43:36;15.43;;;8.07;;
8642;SDS011;4359;49.358;11.256;2023-04-06T01:48:28;17.97;;;7.60;;
8642;SDS011;4359;49.358;11.256;2023-04-06T01:53:19;16.77;;;7.87;;
8642;SDS011;4359;49.358;11.256;2023-04-06T01:58:11;14.63;;;7.53;;
8642;SDS011;4359;49.358;11.256;2023-04-06T02:00:37;16.10;;;8.23;;
8642;SDS011;4359;49.358;11.256;2023-04-06T02:05:29;11.27;;;6.97;;
8642;SDS011;4359;49.358;11.256;2023-04-06T02:07:56;13.20;;;8.17;;
8642;SDS011;4359;49.358;11.256;2023-04-06T02:10:22;12.10;;;7.33;;
8642;SDS011;4359;49.358;11.256;2023-04-06T02:12:49;11.77;;;7.43;;
8642;SDS011;4359;49.358;11.256;2023-04-06T02:17:41;14.57;;;7.27;;
8642;SDS011;4359;49.358;11.256;2023-04-06T02:20:07;15.57;;;8.50;;
8642;SDS011;4359;49.358;11.256;2023-04-06T02:22:34;14.30;;;7.90;;
8642;SDS011;4359;49.358;11.256;2023-04-06T02:25:00;14.80;;;7.90;;
8642;SDS011;4359;49.358;11.256;2023-04-06T02:29:51;13.77;;;7.90;;
8642;SDS011;4359;49.358;11.256;2023-04-06T02:34:43;16.10;;;8.13;;
8642;SDS011;4359;49.358;11.256;2023-04-06T02:39:34;14.27;;;8.37;;
8642;SDS011;4359;49.358;11.256;2023-04-06T02:42:00;15.30;;;7.63;;
8642;SDS011;4359;49.358;11.256;2023-04-06T02:46:51;16.83;;;9.07;;
8642;SDS011;4359;49.358;11.256;2023-04-06T02:49:17;16.77;;;8.63;;
8642;SDS011;4359;49.358;11.256;2023-04-06T02:54:08;15.17;;;7.97;;
8642;SDS011;4359;49.358;11.256;2023-04-06T02:58:59;11.80;;;7.50;;
8642;SDS011;4359;49.358;11.256;2023-04-06T03:03:51;12.87;;;7.67;;
8642;SDS011;4359;49.358;11.256;2023-04-06T03:06:20;15.70;;;8.00;;
8642;SDS011;4359;49.358;11.256;2023-04-06T03:11:12;21.42;;;9.00;;
8642;SDS011;4359;49.358;11.256;2023-04-06T03:16:04;14.17;;;8.33;;
8642;SDS011;4359;49.358;11.256;2023-04-06T03:18:30;16.43;;;8.37;;
8642;SDS011;4359;49.358;11.256;2023-04-06T03:20:56;18.20;;;8.87;;
8642;SDS011;4359;49.358;11.256;2023-04-06T03:25:47;14.13;;;8.30;;
8642;SDS011;4359;49.358;11.256;2023-04-06T03:28:13;14.27;;;8.67;;
8642;SDS011;4359;49.358;11.256;2023-04-06T03:30:40;16.63;;;9.50;;
8642;SDS011;4359;49.358;11.256;2023-04-06T03:35:32;16.30;;;9.03;;
8642;SDS011;4359;49.358;11.256;2023-04-06T03:37:58;19.13;;;9.10;;
8642;SDS011;4359;49.358;11.256;2023-04-06T03:40:23;16.43;;;9.70;;
8642;SDS011;4359;49.358;11.256;2023-04-06T03:45:15;17.40;;;8.97;;
8642;SDS011;4359;49.358;11.256;2023-04-06T03:47:41;14.50;;;8.93;;
8642;SDS011;4359;49.358;11.256;2023-04-06T03:52:32;21.03;;;9.93;;
8642;SDS011;4359;49.358;11.256;2023-04-06T03:54:59;16.00;;;9.20;;
8642;SDS011;4359;49.358;11.256;2023-04-06T03:59:50;18.03;;;8.70;;
8642;SDS011;4359;49.358;11.256;2023-04-06T04:04:41;19.20;;;9.20;;
8642;SDS011;4359;49.358;11.256;2023-04-06T04:09:32;18.73;;;9.30;;
8642;SDS011;4359;49.358;11.256;2023-04-06T04:11:58;23.20;;;10.83;;
8642;SDS011;4359;49.358;11.256;2023-04-06T04:14:24;16.90;;;9.20;;
8642;SDS011;4359;49.358;11.256;2023-04-06T04:16:50;15.00;;;8.77;;
8642;SDS011;4359;49.358;11.256;2023-04-06T04:21:42;20.07;;;9.37;;
8642;SDS011;4359;49.358;11.256;2023-04-06T04:24:09;18.37;;;9.00;;
8642;SDS011;4359;49.358;11.256;2023-04-06T04:29:01;15.93;;;9.00;;
8642;SDS011;4359;49.358;11.256;2023-04-06T04:31:27;18.97;;;9.70;;
8642;SDS011;4359;49.358;11.256;2023-04-06T04:36:18;19.23;;;10.07;;
8642;SDS011;4359;49.358;11.256;2023-04-06T04:41:09;21.77;;;11.07;;
8642;SDS011;4359;49.358;11.256;2023-04-06T04:46:00;23.20;;;10.20;;
8642;SDS011;4359;49.358;11.256;2023-04-06T04:54:14;18.67;;;9.50;;
8642;SDS011;4359;49.358;11.256;2023-04-06T05:08:01;18.10;;;9.73;;
8642;SDS011;4359;49.358;11.256;2023-04-06T05:10:34;16.93;;;9.47;;
8642;SDS011;4359;49.358;11.256;2023-04-06T05:15:25;15.03;;;9.40;;
8642;SDS011;4359;49.358;11.256;2023-04-06T05:17:51;19.53;;;11.07;;
8642;SDS011;4359;49.358;11.256;2023-04-06T05:22:42;20.50;;;9.77;;
8642;SDS011;4359;49.358;11.256;2023-04-06T10:14:02;9.43;;;6.60;;
8642;SDS011;4359;49.358;11.256;2023-04-06T10:16:40;9.70;;;7.20;;
8642;SDS011;4359;49.358;11.256;2023-04-06T10:19:10;10.30;;;6.85;;
8642;SDS011;4359;49.358;11.256;2023-04-06T10:21:41;9.60;;;7.20;;
8642;SDS011;4359;49.358;11.256;2023-04-06T10:24:13;12.55;;;6.75;;
8642;SDS011;4359;49.358;11.256;2023-04-06T10:26:39;10.57;;;7.03;;
8642;SDS011;4359;49.358;11.256;2023-04-06T10:29:05;10.23;;;6.80;;
8642;SDS011;4359;49.358;11.256;2023-04-06T10:31:31;15.30;;;6.70;;
8642;SDS011;4359;49.358;11.256;2023-04-06T10:34:00;12.18;;;7.03;;
8642;SDS011;4359;49.358;11.256;2023-04-06T10:36:28;11.48;;;6.68;;
8642;SDS011;4359;49.358;11.256;2023-04-06T10:38:58;12.95;;;6.97;;
8642;SDS011;4359;49.358;11.256;2023-04-06T10:41:32;9.05;;;6.20;;
8642;SDS011;4359;49.358;11.256;2023-04-06T10:44:06;10.27;;;6.47;;
8642;SDS011;4359;49.358;11.256;2023-04-06T10:46:32;10.32;;;6.55;;
8642;SDS011;4359;49.358;11.256;2023-04-06T10:49:09;9.55;;;6.95;;
8642;SDS011;4359;49.358;11.256;2023-04-06T10:51:37;7.50;;;6.22;;
8642;SDS011;4359;49.358;11.256;2023-04-06T10:57:29;10.13;;;6.32;;
8642;SDS011;4359;49.358;11.256;2023-04-06T10:59:58;8.82;;;6.57;;
8642;SDS011;4359;49.358;11.256;2023-04-06T11:02:24;10.50;;;7.00;;
8642;SDS011;4359;49.358;11.256;2023-04-06T11:04:57;8.80;;;6.40;;
8642;SDS011;4359;49.358;11.256;2023-04-06T11:07:23;10.52;;;7.00;;
8642;SDS011;4359;49.358;11.256;2023-04-06T11:09:50;12.55;;;6.40;;
8642;SDS011;4359;49.358;11.256;2023-04-06T11:14:57;9.25;;;6.22;;
8642;SDS011;4359;49.358;11.256;2023-04-06T11:17:29;11.48;;;6.90;;
8642;SDS011;4359;49.358;11.256;2023-04-06T11:19:56;13.13;;;6.95;;
8642;SDS011;4359;49.358;11.256;2023-04-06T11:22:23;8.55;;;6.43;;
8642;SDS011;4359;49.358;11.256;2023-04-06T11:24:49;11.38;;;7.00;;
8642;SDS011;4359;49.358;11.256;2023-04-06T11:27:15;11.18;;;6.78;;
8642;SDS011;4359;49.358;11.256;2023-04-06T11:29:45;11.07;;;6.35;;
8642;SDS011;4359;49.358;11.256;2023-04-06T11:32:11;11.75;;;6.82;;
8642;SDS011;4359;49.358;11.256;2023-04-06T11:34:44;7.32;;;5.45;;
8642;SDS011;4359;49.358;11.256;2023-04-06T11:37:12;10.57;;;6.72;;
8642;SDS011;4359;49.358;11.256;2023-04-06T11:39:39;11.63;;;6.50;;
8642;SDS011;4359;49.358;11.256;2023-04-06T11:42:25;10.68;;;6.07;;
8642;SDS011;4359;49.358;11.256;2023-04-06T11:44:58;10.73;;;6.47;;
8642;SDS011;4359;49.358;11.256;2023-04-06T11:47:35;7.55;;;5.55;;
8642;SDS011;4359;49.358;11.256;2023-04-06T11:50:06;9.68;;;5.65;;
8642;SDS011;4359;49.358;11.256;2023-04-06T12:07:03;8.13;;;6.15;;
8642;SDS011;4359;49.358;11.256;2023-04-06T12:09:30;10.95;;;6.28;;
8642;SDS011;4359;49.358;11.256;2023-04-06T12:15:18;12.10;;;6.43;;
8642;SDS011;4359;49.358;11.256;2023-04-06T12:21:06;8.07;;;5.72;;
8642;SDS011;4359;49.358;11.256;2023-04-06T12:23:31;8.32;;;5.93;;
8642;SDS011;4359;49.358;11.256;2023-04-06T12:25:57;9.05;;;5.88;;
8642;SDS011;4359;49.358;11.256;2023-04-06T12:28:23;9.02;;;5.38;;
8642;SDS011;4359;49.358;11.256;2023-04-06T12:30:51;12.18;;;5.75;;
8642;SDS011;4359;49.358;11.256;2023-04-06T12:33:17;10.70;;;5.95;;
8642;SDS011;4359;49.358;11.256;2023-04-06T12:35:43;8.65;;;5.55;;
8642;SDS011;4359;49.358;11.256;2023-04-06T12:38:08;9.48;;;6.00;;
8642;SDS011;4359;49.358;11.256;2023-04-06T12:40:37;7.82;;;5.32;;
8642;SDS011;4359;49.358;11.256;2023-04-06T12:43:04;8.82;;;5.70;;
8642;SDS011;4359;49.358;11.256;2023-04-06T12:45:30;9.00;;;6.05;;
8642;SDS011;4359;49.358;11.256;2023-04-06T12:47:56;8.55;;;5.65;;
8642;SDS011;4359;49.358;11.256;2023-04-06T12:50:23;8.30;;;5.70;;
8642;SDS011;4359;49.358;11.256;2023-04-06T12:52:48;7.53;;;5.75;;
8642;SDS011;4359;49.358;11.256;2023-04-06T12:55:14;9.27;;;6.00;;
8642;SDS011;4359;49.358;11.256;2023-04-06T12:57:40;9.25;;;6.22;;
8642;SDS011;4359;49.358;11.256;2023-04-06T13:00:06;6.90;;;5.05;;
8642;SDS011;4359;49.358;11.256;2023-04-06T13:02:33;10.50;;;5.63;;
8642;SDS011;4359;49.358;11.256;2023-04-06T13:04:59;8.85;;;6.05;;
8642;SDS011;4359;49.358;11.256;2023-04-06T13:07:25;7.35;;;4.80;;
8642;SDS011;4359;49.358;11.256;2023-04-06T13:09:51;9.10;;;6.00;;
8642;SDS011;4359;49.358;11.256;2023-04-06T13:12:17;10.85;;;5.53;;
8642;SDS011;4359;49.358;11.256;2023-04-06T13:14:43;8.00;;;5.80;;
8642;SDS011;4359;49.358;11.256;2023-04-06T13:17:11;7.65;;;5.88;;
8642;SDS011;4359;49.358;11.256;2023-04-06T13:19:37;7.57;;;5.55;;
8642;SDS011;4359;49.358;11.256;2023-04-06T13:22:03;8.27;;;5.13;;
8642;SDS011;4359;49.358;11.256;2023-04-06T13:24:28;7.15;;;5.65;;
8642;SDS011;4359;49.358;11.256;2023-04-06T13:26:54;11.18;;;6.43;;
8642;SDS011;4359;49.358;11.256;2023-04-06T13:29:20;7.40;;;5.05;;
8642;SDS011;4359;49.358;11.256;2023-04-06T13:31:46;8.45;;;4.93;;
8642;SDS011;4359;49.358;11.256;2023-04-06T13:34:11;10.00;;;6.25;;
8642;SDS011;4359;49.358;11.256;2023-04-06T13:36:37;8.23;;;5.55;;
8642;SDS011;4359;49.358;11.256;2023-04-06T13:39:05;9.88;;;5.60;;
8642;SDS011;4359;49.358;11.256;2023-04-06T13:41:31;10.05;;;5.43;;
8642;SDS011;4359;49.358;11.256;2023-04-06T13:43:57;7.63;;;4.90;;
8642;SDS011;4359;49.358;11.256;2023-04-06T13:46:23;10.18;;;5.88;;
8642;SDS011;4359;49.358;11.256;2023-04-06T13:48:49;9.68;;;5.35;;
8642;SDS011;4359;49.358;11.256;2023-04-06T13:51:14;10.32;;;5.65;;
8642;SDS011;4359;49.358;11.256;2023-04-06T13:53:40;7.82;;;5.72;;
8642;SDS011;4359;49.358;11.256;2023-04-06T13:56:06;10.27;;;6.03;;
8642;SDS011;4359;49.358;11.256;2023-04-06T13:58:32;7.38;;;5.30;;
8642;SDS011;4359;49.358;11.256;2023-04-06T14:01:05;8.20;;;5.57;;
8642;SDS011;4359;49.358;11.256;2023-04-06T14:03:32;9.88;;;5.63;;
8642;SDS011;4359;49.358;11.256;2023-04-06T14:05:58;9.68;;;5.47;;
8642;SDS011;4359;49.358;11.256;2023-04-06T14:08:24;10.63;;;5.30;;
8642;SDS011;4359;49.358;11.256;2023-04-06T14:10:50;8.30;;;5.85;;
8642;SDS011;4359;49.358;11.256;2023-04-06T14:13:16;7.03;;;5.53;;
8642;SDS011;4359;49.358;11.256;2023-04-06T14:15:42;11.35;;;5.18;;
8642;SDS011;4359;49.358;11.256;2023-04-06T14:18:08;7.95;;;5.30;;
8642;SDS011;4359;49.358;11.256;2023-04-06T14:20:34;14.88;;;6.50;;
8642;SDS011;4359;49.358;11.256;2023-04-06T14:23:03;9.80;;;4.88;;
8642;SDS011;4359;49.358;11.256;2023-04-06T14:25:29;10.15;;;6.63;;
8642;SDS011;4359;49.358;11.256;2023-04-06T14:27:59;11.70;;;5.57;;
8642;SDS011;4359;49.358;11.256;2023-04-06T14:30:25;9.02;;;5.78;;
8642;SDS011;4359;49.358;11.256;2023-04-06T14:32:51;9.00;;;5.47;;
8642;SDS011;4359;49.358;11.256;2023-04-06T14:35:16;9.40;;;5.80;;
8642;SDS011;4359;49.358;11.256;2023-04-06T14:37:42;7.00;;;5.25;;
8642;SDS011;4359;49.358;11.256;2023-04-06T14:40:08;8.57;;;5.45;;
8642;SDS011;4359;49.358;11.256;2023-04-06T14:42:35;11.20;;;5.55;;
8642;SDS011;4359;49.358;11.256;2023-04-06T14:45:00;9.90;;;4.72;;
8642;SDS011;4359;49.358;11.256;2023-04-06T14:47:26;18.15;;;5.05;;
8642;SDS011;4359;49.358;11.256;2023-04-06T14:49:52;7.82;;;4.38;;
8642;SDS011;4359;49.358;11.256;2023-04-06T14:52:18;6.72;;;4.47;;
8642;SDS011;4359;49.358;11.256;2023-04-06T14:54:44;7.80;;;4.60;;
8642;SDS011;4359;49.358;11.256;2023-04-06T14:57:10;5.65;;;4.50;;
8642;SDS011;4359;49.358;11.256;2023-04-06T14:59:35;7.53;;;4.88;;
8642;SDS011;4359;49.358;11.256;2023-04-06T15:02:02;7.65;;;5.47;;
8642;SDS011;4359;49.358;11.256;2023-04-06T15:04:28;9.15;;;5.32;;
8642;SDS011;4359;49.358;11.256;2023-04-06T15:06:54;8.13;;;5.30;;
8642;SDS011;4359;49.358;11.256;2023-04-06T15:09:20;7.18;;;4.47;;
8642;SDS011;4359;49.358;11.256;2023-04-06T15:11:46;7.72;;;5.68;;
8642;SDS011;4359;49.358;11.256;2023-04-06T15:14:12;7.35;;;5.28;;
8642;SDS011;4359;49.358;11.256;2023-04-06T15:16:37;9.60;;;5.53;;
8642;SDS011;4359;49.358;11.256;2023-04-06T15:19:03;6.95;;;4.95;;
8642;SDS011;4359;49.358;11.256;2023-04-06T15:21:29;8.50;;;5.78;;
8642;SDS011;4359;49.358;11.256;2023-04-06T15:23:55;8.50;;;5.35;;
8642;SDS011;4359;49.358;11.256;2023-04-06T15:26:21;7.57;;;5.32;;
8642;SDS011;4359;49.358;11.256;2023-04-06T15:28:47;7.07;;;4.82;;
8642;SDS011;4359;49.358;11.256;2023-04-06T15:31:13;7.32;;;5.00;;
8642;SDS011;4359;49.358;11.256;2023-04-06T15:33:43;8.20;;;5.63;;
8642;SDS011;4359;49.358;11.256;2023-04-06T15:36:22;10.52;;;7.18;;
8642;SDS011;4359;49.358;11.256;2023-04-06T15:38:53;9.23;;;5.88;;
8642;SDS011;4359;49.358;11.256;2023-04-06T15:41:20;8.10;;;5.32;;
8642;SDS011;4359;49.358;11.256;2023-04-06T15:43:46;7.95;;;5.18;;
8642;SDS011;4359;49.358;11.256;2023-04-06T15:46:13;10.43;;;5.68;;
8642;SDS011;4359;49.358;11.256;2023-04-06T15:48:39;9.40;;;5.85;;
8642;SDS011;4359;49.358;11.256;2023-04-06T15:51:06;7.95;;;5.00;;
8642;SDS011;4359;49.358;11.256;2023-04-06T15:53:31;9.23;;;5.50;;
8642;SDS011;4359;49.358;11.256;2023-04-06T15:56:01;8.57;;;5.10;;
8642;SDS011;4359;49.358;11.256;2023-04-06T15:58:27;12.30;;;7.95;;
8642;SDS011;4359;49.358;11.256;2023-04-06T16:00:53;7.32;;;5.35;;
8642;SDS011;4359;49.358;11.256;2023-04-06T16:03:19;11.13;;;5.95;;
8642;SDS011;4359;49.358;11.256;2023-04-06T16:05:45;9.48;;;5.85;;
8642;SDS011;4359;49.358;11.256;2023-04-06T16:08:11;9.93;;;5.80;;
8642;SDS011;4359;49.358;11.256;2023-04-06T16:10:38;7.40;;;5.53;;
8642;SDS011;4359;49.358;11.256;2023-04-06T16:13:05;8.18;;;5.97;;
8642;SDS011;4359;49.358;11.256;2023-04-06T16:15:32;9.45;;;6.35;;
8642;SDS011;4359;49.358;11.256;2023-04-06T16:17:58;7.57;;;5.78;;
8642;SDS011;4359;49.358;11.256;2023-04-06T16:20:24;9.70;;;6.00;;
8642;SDS011;4359;49.358;11.256;2023-04-06T16:22:49;10.07;;;6.25;;
8642;SDS011;4359;49.358;11.256;2023-04-06T16:25:15;8.25;;;6.00;;
8642;SDS011;4359;49.358;11.256;2023-04-06T16:27:41;11.10;;;6.10;;
8642;SDS011;4359;49.358;11.256;2023-04-06T16:30:07;8.73;;;5.70;;
8642;SDS011;4359;49.358;11.256;2023-04-06T16:32:33;8.13;;;5.63;;
8642;SDS011;4359;49.358;11.256;2023-04-06T16:34:59;7.70;;;5.63;;
8642;SDS011;4359;49.358;11.256;2023-04-06T16:37:25;8.73;;;5.50;;
8642;SDS011;4359;49.358;11.256;2023-04-06T16:39:53;7.80;;;5.00;;
8642;SDS011;4359;49.358;11.256;2023-04-06T16:42:19;8.68;;;5.63;;
8642;SDS011;4359;49.358;11.256;2023-04-06T16:44:45;10.43;;;5.88;;
8642;SDS011;4359;49.358;11.256;2023-04-06T16:47:14;9.82;;;6.38;;
8642;SDS011;4359;49.358;11.256;2023-04-06T16:49:41;9.35;;;6.10;;
8642;SDS011;4359;49.358;11.256;2023-04-06T16:52:08;10.02;;;6.10;;
8642;SDS011;4359;49.358;11.256;2023-04-06T16:54:34;11.45;;;6.43;;
8642;SDS011;4359;49.358;11.256;2023-04-06T16:57:00;13.80;;;8.57;;
8642;SDS011;4359;49.358;11.256;2023-04-06T16:59:30;7.97;;;5.97;;
8642;SDS011;4359;49.358;11.256;2023-04-06T17:01:56;11.18;;;6.22;;
8642;SDS011;4359;49.358;11.256;2023-04-06T17:04:22;9.52;;;6.80;;
8642;SDS011;4359;49.358;11.256;2023-04-06T17:06:47;11.30;;;7.45;;
8642;SDS011;4359;49.358;11.256;2023-04-06T17:09:14;9.40;;;6.88;;
8642;SDS011;4359;49.358;11.256;2023-04-06T17:11:40;8.93;;;6.53;;
8642;SDS011;4359;49.358;11.256;2023-04-06T17:14:14;9.93;;;6.55;;
8642;SDS011;4359;49.358;11.256;2023-04-06T17:16:40;8.68;;;5.90;;
8642;SDS011;4359;49.358;11.256;2023-04-06T17:19:06;10.32;;;6.43;;
8642;SDS011;4359;49.358;11.256;2023-04-06T17:21:32;8.98;;;5.95;;
8642;SDS011;4359;49.358;11.256;2023-04-06T17:23:57;9.13;;;5.65;;
8642;SDS011;4359;49.358;11.256;2023-04-06T17:26:23;7.60;;;5.00;;
8642;SDS011;4359;49.358;11.256;2023-04-06T17:28:48;8.02;;;5.15;;
8642;SDS011;4359;49.358;11.256;2023-04-06T17:31:14;7.10;;;4.65;;
8642;SDS011;4359;49.358;11.256;2023-04-06T17:33:40;7.70;;;3.70;;
8642;SDS011;4359;49.358;11.256;2023-04-06T17:36:06;5.32;;;3.20;;
8642;SDS011;4359;49.358;11.256;2023-04-06T17:38:36;4.80;;;3.40;;
8642;SDS011;4359;49.358;11.256;2023-04-06T17:41:03;5.32;;;3.42;;
8642;SDS011;4359;49.358;11.256;2023-04-06T17:43:31;7.10;;;3.75;;
8642;SDS011;4359;49.358;11.256;2023-04-06T17:45:57;6.95;;;4.10;;
8642;SDS011;4359;49.358;11.256;2023-04-06T17:50:48;5.18;;;3.03;;
8642;SDS011;4359;49.358;11.256;2023-04-06T17:53:14;6.22;;;3.80;;
8642;SDS011;4359;49.358;11.256;2023-04-06T17:55:42;6.00;;;3.63;;
8642;SDS011;4359;49.358;11.256;2023-04-06T18:00:33;5.85;;;3.42;;
8642;SDS011;4359;49.358;11.256;2023-04-06T18:05:25;6.78;;;3.45;;
8642;SDS011;4359;49.358;11.256;2023-04-06T18:07:50;5.05;;;2.97;;
8642;SDS011;4359;49.358;11.256;2023-04-06T18:10:22;5.38;;;3.22;;
8642;SDS011;4359;49.358;11.256;2023-04-06T18:15:13;9.50;;;5.68;;
8642;SDS011;4359;49.358;11.256;2023-04-06T18:17:41;10.25;;;4.95;;
8642;SDS011;4359;49.358;11.256;2023-04-06T18:20:07;14.50;;;7.57;;
8642;SDS011;4359;49.358;11.256;2023-04-06T18:22:33;9.55;;;5.47;;
8642;SDS011;4359;49.358;11.256;2023-04-06T18:25:00;9.75;;;5.20;;
8642;SDS011;4359;49.358;11.256;2023-04-06T18:27:27;9.38;;;4.50;;
8642;SDS011;4359;49.358;11.256;2023-04-06T18:32:18;10.45;;;4.88;;
8642;SDS011;4359;49.358;11.256;2023-04-06T18:37:10;19.58;;;10.13;;
8642;SDS011;4359;49.358;11.256;2023-04-06T18:39:36;15.23;;;9.15;;
8642;SDS011;4359;49.358;11.256;2023-04-06T18:44:27;10.48;;;5.25;;
8642;SDS011;4359;49.358;11.256;2023-04-06T18:46:55;9.13;;;4.45;;
8642;SDS011;4359;49.358;11.256;2023-04-06T18:51:46;8.23;;;4.82;;
8642;SDS011;4359;49.358;11.256;2023-04-06T18:56:37;7.68;;;4.18;;
8642;SDS011;4359;49.358;11.256;2023-04-06T18:59:05;6.40;;;3.80;;
8642;SDS011;4359;49.358;11.256;2023-04-06T19:03:56;13.50;;;5.38;;
8642;SDS011;4359;49.358;11.256;2023-04-06T19:06:23;12.20;;;6.15;;
8642;SDS011;4359;49.358;11.256;2023-04-06T19:08:50;9.75;;;6.32;;
8642;SDS011;4359;49.358;11.256;2023-04-06T19:13:42;9.95;;;5.93;;
8642;SDS011;4359;49.358;11.256;2023-04-06T19:16:14;10.18;;;4.32;;
8642;SDS011;4359;49.358;11.256;2023-04-06T19:18:40;7.45;;;4.28;;
8642;SDS011;4359;49.358;11.256;2023-04-06T19:21:19;7.72;;;5.07;;
8642;SDS011;4359;49.358;11.256;2023-04-06T19:23:47;7.40;;;4.63;;
8642;SDS011;4359;49.358;11.256;2023-04-06T19:26:14;8.40;;;5.25;;
8642;SDS011;4359;49.358;11.256;2023-04-06T19:28:41;10.68;;;6.00;;
8642;SDS011;4359;49.358;11.256;2023-04-06T19:31:07;9.80;;;5.17;;
8642;SDS011;4359;49.358;11.256;2023-04-06T19:33:34;9.93;;;4.90;;
8642;SDS011;4359;49.358;11.256;2023-04-06T19:36:01;8.70;;;5.07;;
8642;SDS011;4359;49.358;11.256;2023-04-06T19:38:27;12.30;;;5.00;;
8642;SDS011;4359;49.358;11.256;2023-04-06T19:43:19;8.87;;;5.40;;
8642;SDS011;4359;49.358;11.256;2023-04-06T19:48:13;9.77;;;6.30;;
8642;SDS011;4359;49.358;11.256;2023-04-06T19:53:04;9.53;;;5.73;;
8642;SDS011;4359;49.358;11.256;2023-04-06T19:55:32;10.97;;;6.43;;
8642;SDS011;4359;49.358;11.256;2023-04-06T19:57:58;13.90;;;6.90;;
8642;SDS011;4359;49.358;11.256;2023-04-06T20:02:49;12.50;;;7.10;;
8642;SDS011;4359;49.358;11.256;2023-04-06T20:07:40;10.77;;;6.93;;
8642;SDS011;4359;49.358;11.256;2023-04-06T20:12:32;12.10;;;6.97;;
8642;SDS011;4359;49.358;11.256;2023-04-06T20:14:58;13.03;;;7.23;;
8642;SDS011;4359;49.358;11.256;2023-04-06T20:19:49;15.23;;;8.13;;
8642;SDS011;4359;49.358;11.256;2023-04-06T20:22:17;13.07;;;7.60;;
8642;SDS011;4359;49.358;11.256;2023-04-06T20:27:09;12.90;;;7.27;;
8642;SDS011;4359;49.358;11.256;2023-04-06T20:32:00;15.33;;;7.50;;
8642;SDS011;4359;49.358;11.256;2023-04-06T20:36:53;18.60;;;8.48;;
8642;SDS011;4359;49.358;11.256;2023-04-06T20:39:22;13.30;;;7.77;;
8642;SDS011;4359;49.358;11.256;2023-04-06T20:41:51;18.33;;;8.33;;
8642;SDS011;4359;49.358;11.256;2023-04-06T20:46:43;17.50;;;8.38;;
8642;SDS011;4359;49.358;11.256;2023-04-06T20:49:10;16.77;;;9.00;;
8642;SDS011;4359;49.358;11.256;2023-04-06T20:51:38;19.20;;;9.57;;
8642;SDS011;4359;49.358;11.256;2023-04-06T20:54:06;17.83;;;8.53;;
8642;SDS011;4359;49.358;11.256;2023-04-06T20:58:57;20.40;;;10.47;;
8642;SDS011;4359;49.358;11.256;2023-04-06T21:01:24;17.77;;;9.27;;
8642;SDS011;4359;49.358;11.256;2023-04-06T21:06:15;18.23;;;8.60;;
8642;SDS011;4359;49.358;11.256;2023-04-06T21:11:07;14.00;;;7.10;;
8642;SDS011;4359;49.358;11.256;2023-04-06T21:15:59;15.20;;;8.10;;
8642;SDS011;4359;49.358;11.256;2023-04-06T21:20:51;13.97;;;7.90;;
8642;SDS011;4359;49.358;11.256;2023-04-06T21:25:42;18.30;;;8.10;;
8642;SDS011;4359;49.358;11.256;2023-04-06T21:30:35;19.53;;;8.57;;
8642;SDS011;4359;49.358;11.256;2023-04-06T21:33:04;16.73;;;9.43;;
8642;SDS011;4359;49.358;11.256;2023-04-06T21:35:32;18.80;;;9.50;;
8642;SDS011;4359;49.358;11.256;2023-04-06T21:37:58;16.67;;;9.70;;
8642;SDS011;4359;49.358;11.256;2023-04-06T21:42:49;19.33;;;10.00;;
8642;SDS011;4359;49.358;11.256;2023-04-06T21:47:40;16.30;;;8.53;;
8642;SDS011;4359;49.358;11.256;2023-04-06T21:50:06;17.77;;;10.87;;
8642;SDS011;4359;49.358;11.256;2023-04-06T21:54:57;18.13;;;9.73;;
8642;SDS011;4359;49.358;11.256;2023-04-06T21:59:48;18.13;;;9.87;;
8642;SDS011;4359;49.358;11.256;2023-04-06T22:04:40;20.70;;;11.17;;
8642;SDS011;4359;49.358;11.256;2023-04-06T22:09:31;19.00;;;11.20;;
8642;SDS011;4359;49.358;11.256;2023-04-06T22:14:22;20.50;;;12.20;;
8642;SDS011;4359;49.358;11.256;2023-04-06T22:16:49;19.93;;;12.20;;
8642;SDS011;4359;49.358;11.256;2023-04-06T22:21:40;20.40;;;11.43;;
8642;SDS011;4359;49.358;11.256;2023-04-06T22:24:08;17.53;;;11.57;;
8642;SDS011;4359;49.358;11.256;2023-04-06T22:28:59;31.17;;;15.10;;
8642;SDS011;4359;49.358;11.256;2023-04-06T22:33:51;71.33;;;28.60;;
8642;SDS011;4359;49.358;11.256;2023-04-06T22:36:16;40.17;;;18.53;;
8642;SDS011;4359;49.358;11.256;2023-04-06T22:41:08;23.27;;;12.63;;
8642;SDS011;4359;49.358;11.256;2023-04-06T22:45:59;22.80;;;12.90;;
8642;SDS011;4359;49.358;11.256;2023-04-06T22:50:50;16.90;;;9.93;;
8642;SDS011;4359;49.358;11.256;2023-04-06T22:55:42;24.13;;;12.63;;
8642;SDS011;4359;49.358;11.256;2023-04-06T23:00:33;23.40;;;13.30;;
8642;SDS011;4359;49.358;11.256;2023-04-06T23:05:25;25.17;;;13.13;;
8642;SDS011;4359;49.358;11.256;2023-04-06T23:10:17;20.03;;;11.90;;
8642;SDS011;4359;49.358;11.256;2023-04-06T23:12:44;21.50;;;13.10;;
8642;SDS011;4359;49.358;11.256;2023-04-06T23:15:13;25.40;;;13.43;;
8642;SDS011;4359;49.358;11.256;2023-04-06T23:20:04;21.63;;;12.57;;
8642;SDS011;4359;49.358;11.256;2023-04-06T23:22:30;25.47;;;13.43;;
8642;SDS011;4359;49.358;11.256;2023-04-06T23:27:21;22.57;;;12.40;;
8642;SDS011;4359;49.358;11.256;2023-04-06T23:32:12;22.80;;;13.23;;
8642;SDS011;4359;49.358;11.256;2023-04-06T23:37:04;23.17;;;12.37;;
8642;SDS011;4359;49.358;11.256;2023-04-06T23:41:55;22.73;;;13.13;;
8642;SDS011;4359;49.358;11.256;2023-04-06T23:44:27;25.50;;;13.70;;
8642;SDS011;4359;49.358;11.256;2023-04-06T23:46:54;26.07;;;13.97;;
8642;SDS011;4359;49.358;11.256;2023-04-06T23:51:46;29.00;;;13.53;;
8642;SDS011;4359;49.358;11.256;2023-04-06T23:56:37;27.20;;;13.43;;
